Time;durP1;ratioP1;P1;durP2;ratioP2;P2;SDS_P1;SDS_P2;PMS_P1;PMS_P2;Temp;Humidity;BMP_temperature;BMP_pressure;BME280_temperature;BME280_humidity;BME280_pressure;Samples;Min_cycle;Max_cycle;Signal;HPM_P1;HPM_P2
2023/01/10 00:00:14;;;;;;;;;;;;;;;16.06;71.12;100277.66;7407680;19;1861;-77
2023/01/10 00:02:43;;;;;;;;;;;;;;;16.06;71.09;100258.97;7407510;19;1645;-78
2023/01/10 00:05:11;;;;;;;;;;;;;;;16.09;71.18;100271.19;7408961;19;1487;-78
2023/01/10 00:07:39;;;;;;;;;;;;;;;16.06;71.27;100260.81;7409149;19;1344;-77
2023/01/10 00:10:08;;;;;;;;;;;;;;;16.07;71.25;100275.81;7405369;19;1675;-78
2023/01/10 00:15:28;;;;;;;;;;;;;;;15.97;71.41;100235.72;7405728;19;1223;-78
2023/01/10 00:17:56;;;;;;;;;;;;;;;15.99;70.84;100248.94;7409664;19;1621;-78
2023/01/10 00:20:24;;;;;;;;;;;;;;;15.98;70.74;100247.28;7406801;19;1850;-78
2023/01/10 00:22:52;;;;;;;;;;;;;;;15.96;71.46;100260.72;7409119;19;1595;-78
2023/01/10 00:25:21;;;;;;;;;;;;;;;15.95;71.09;100244.84;7409413;19;1551;-78
2023/01/10 00:27:56;;;;;;;;;;;;;;;15.96;71.54;100243.88;7410510;19;961;-78
2023/01/10 00:30:25;;;;;;;;;;;;;;;15.94;71.34;100236.00;7411008;19;962;-78
2023/01/10 00:32:53;;;;;;;;;;;;;;;15.94;71.17;100249.34;7409160;19;1546;-78
2023/01/10 00:35:21;;;;;;;;;;;;;;;15.95;71.05;100234.19;7408225;19;1803;-78
2023/01/10 00:37:50;;;;;;;;;;;;;;;15.94;71.32;100251.16;7406340;19;1418;-78
2023/01/10 00:40:19;;;;;;;;;;;;;;;15.89;71.24;100233.72;7407714;19;1848;-78
2023/01/10 00:45:30;;;;;;;;;;;;;;;15.87;71.01;100224.16;7409905;19;758;-78
2023/01/10 00:47:59;;;;;;;;;;;;;;;15.86;71.38;100217.16;7405679;19;1706;-78
2023/01/10 00:50:27;;;;;;;;;;;;;;;15.84;71.19;100230.59;7408866;19;1559;-78
2023/01/10 00:52:55;;;;;;;;;;;;;;;15.85;70.96;100231.44;7406057;19;1671;-78
2023/01/10 00:55:23;;;;;;;;;;;;;;;15.85;71.06;100234.94;7408397;19;1340;-78
2023/01/10 00:57:52;;;;;;;;;;;;;;;15.82;71.02;100221.88;7408589;19;1122;-78
2023/01/10 01:00:20;;;;;;;;;;;;;;;15.81;71.45;100230.84;7406394;19;1850;-78
2023/01/10 01:02:53;;;;;;;;;;;;;;;15.82;71.22;100224.53;7404850;19;1716;-78
2023/01/10 01:05:21;;;;;;;;;;;;;;;15.84;71.14;100219.94;7401428;19;1582;-78
2023/01/10 01:07:50;;;;;;;;;;;;;;;15.82;71.29;100211.22;7404951;19;1689;-78
2023/01/10 01:10:28;;;;;;;;;;;;;;;15.79;71.13;100206.13;7405511;19;1588;-78
2023/01/10 01:12:57;;;;;;;;;;;;;;;15.82;70.94;100221.88;7406609;19;1036;-78
2023/01/10 01:15:25;;;;;;;;;;;;;;;15.79;70.91;100210.63;7406502;19;996;-78
2023/01/10 01:17:56;;;;;;;;;;;;;;;15.79;71.34;100221.28;7405928;19;1816;-78
2023/01/10 01:20:24;;;;;;;;;;;;;;;15.78;71.05;100223.13;7402648;19;1843;-78
2023/01/10 01:22:53;;;;;;;;;;;;;;;15.75;71.26;100214.53;7401916;19;1682;-78
2023/01/10 01:25:21;;;;;;;;;;;;;;;15.79;71.22;100221.28;7405425;19;1593;-78
2023/01/10 01:27:49;;;;;;;;;;;;;;;15.77;71.57;100225.91;7403363;19;1462;-78
2023/01/10 01:30:18;;;;;;;;;;;;;;;15.76;71.08;100206.41;7405260;19;1748;-78
2023/01/10 01:32:46;;;;;;;;;;;;;;;15.76;71.42;100201.06;7405099;19;1681;-78
2023/01/10 01:35:17;;;;;;;;;;;;;;;15.75;71.38;100215.34;7402110;19;1653;-78
2023/01/10 01:37:46;;;;;;;;;;;;;;;15.78;71.03;100212.44;7404508;19;1601;-78
2023/01/10 01:40:15;;;;;;;;;;;;;;;15.75;71.09;100215.34;7402989;19;1839;-78
2023/01/10 01:42:44;;;;;;;;;;;;;;;15.75;71.33;100223.34;7402416;19;1481;-78
2023/01/10 01:45:27;;;;;;;;;;;;;;;15.74;71.24;100228.81;7402197;19;1695;-78
2023/01/10 01:47:57;;;;;;;;;;;;;;;15.71;71.32;100225.38;7402518;19;1786;-78
2023/01/10 01:50:32;;;;;;;;;;;;;;;15.69;71.30;100214.00;7401900;19;1412;-78
2023/01/10 01:53:02;;;;;;;;;;;;;;;15.70;71.23;100222.88;7401451;19;1582;-78
2023/01/10 01:55:32;;;;;;;;;;;;;;;15.68;71.41;100208.81;7403114;19;1625;-78
2023/01/10 01:58:02;;;;;;;;;;;;;;;15.66;71.36;100208.94;7403458;19;1669;-78
2023/01/10 02:00:30;;;;;;;;;;;;;;;15.65;71.06;100206.41;7403745;19;1837;-78
2023/01/10 02:03:00;;;;;;;;;;;;;;;15.66;71.49;100200.13;7402465;19;1783;-78
2023/01/10 02:05:32;;;;;;;;;;;;;;;15.69;71.31;100207.84;7402539;19;1619;-78
2023/01/10 02:08:01;;;;;;;;;;;;;;;15.92;70.61;100203.28;7401165;19;1476;-78
2023/01/10 02:10:34;;;;;;;;;;;;;;;16.36;69.06;100198.66;7403229;19;1633;-78
2023/01/10 02:13:04;;;;;;;;;;;;;;;16.29;69.10;100222.38;7403426;19;1396;-78
2023/01/10 02:15:33;;;;;;;;;;;;;;;16.08;70.04;100210.84;7402825;19;1394;-78
2023/01/10 02:18:02;;;;;;;;;;;;;;;15.95;70.26;100210.19;7403435;19;1676;-78
2023/01/10 02:20:40;;;;;;;;;;;;;;;15.67;69.40;100196.47;7398542;19;1829;-78
2023/01/10 02:23:25;;;;;;;;;;;;;;;15.61;70.53;100223.63;7402935;19;1780;-78
2023/01/10 02:26:10;;;;;;;;;;;;;;;15.59;70.86;100215.75;7401366;19;1490;-78
2023/01/10 02:28:52;;;;;;;;;;;;;;;15.55;71.57;100195.66;7399562;19;1494;-78
2023/01/10 02:31:47;;;;;;;;;;;;;;;15.59;71.37;100193.59;7400127;19;1249;-78
2023/01/10 02:34:21;;;;;;;;;;;;;;;15.73;73.93;100179.16;7394959;19;1687;-78
2023/01/10 02:36:52;;;;;;;;;;;;;;;15.77;72.96;100189.41;7391503;19;1528;-78
2023/01/10 02:39:25;;;;;;;;;;;;;;;15.80;72.47;100181.16;7398097;19;1323;-78
2023/01/10 02:41:58;;;;;;;;;;;;;;;15.77;72.36;100194.75;7403275;19;1842;-78
2023/01/10 02:44:29;;;;;;;;;;;;;;;15.74;72.06;100187.03;7402047;19;1806;-78
2023/01/10 02:46:58;;;;;;;;;;;;;;;15.73;71.86;100185.31;7404054;19;1589;-78
2023/01/10 02:49:29;;;;;;;;;;;;;;;15.71;72.33;100189.91;7404855;19;1681;-78
2023/01/10 02:51:58;;;;;;;;;;;;;;;16.29;70.10;100177.00;7404853;19;1478;-78
2023/01/10 02:54:29;;;;;;;;;;;;;;;17.70;66.28;100154.72;7404773;19;1656;-78
2023/01/10 02:57:11;;;;;;;;;;;;;;;18.38;64.35;100173.38;7403191;19;1379;-78
2023/01/10 03:00:01;;;;;;;;;;;;;;;18.88;62.78;100156.13;7394010;19;1796;-78
2023/01/10 03:02:35;;;;;;;;;;;;;;;19.11;61.94;100153.00;7402598;19;1486;-78
2023/01/10 03:05:11;;;;;;;;;;;;;;;19.32;61.60;100166.97;7404463;19;1594;-78
2023/01/10 03:07:48;;;;;;;;;;;;;;;19.45;61.42;100170.09;7402601;19;1688;-78
2023/01/10 03:10:16;;;;;;;;;;;;;;;19.35;61.27;100155.94;7403277;19;1428;-78
2023/01/10 03:12:47;;;;;;;;;;;;;;;19.42;61.45;100162.38;7404393;19;985;-78
2023/01/10 03:15:18;;;;;;;;;;;;;;;19.41;61.37;100170.56;7403676;19;1824;-78
2023/01/10 03:17:49;;;;;;;;;;;;;;;19.30;61.90;100163.63;7403887;19;1794;-78
2023/01/10 03:20:21;;;;;;;;;;;;;;;19.37;61.48;100153.94;7400977;19;1842;-78
2023/01/10 03:22:50;;;;;;;;;;;;;;;19.45;61.19;100162.06;7404390;19;1668;-78
2023/01/10 03:25:20;;;;;;;;;;;;;;;19.44;61.19;100144.31;7401179;19;1664;-78
2023/01/10 03:27:52;;;;;;;;;;;;;;;19.53;61.18;100161.28;7404584;19;1028;-78
2023/01/10 03:30:26;;;;;;;;;;;;;;;19.46;61.48;100155.72;7403441;19;1811;-78
2023/01/10 03:32:54;;;;;;;;;;;;;;;19.51;61.34;100155.25;7402476;19;1510;-78
2023/01/10 03:35:32;;;;;;;;;;;;;;;19.64;60.81;100138.78;7401743;19;1806;-78
2023/01/10 03:38:04;;;;;;;;;;;;;;;19.60;60.64;100145.44;7403358;19;1701;-78
2023/01/10 03:40:35;;;;;;;;;;;;;;;19.61;61.14;100141.75;7402739;19;1846;-78
2023/01/10 03:45:51;;;;;;;;;;;;;;;19.59;60.83;100125.81;7405282;19;1288;-78
2023/01/10 03:48:19;;;;;;;;;;;;;;;19.64;60.88;100136.09;7402592;19;1838;-78
2023/01/10 03:50:51;;;;;;;;;;;;;;;19.48;61.18;100129.59;7402164;19;1432;-78
2023/01/10 03:53:19;;;;;;;;;;;;;;;18.80;62.71;100122.03;7401853;19;1847;-78
2023/01/10 03:55:47;;;;;;;;;;;;;;;18.09;64.72;100119.91;7403377;19;1705;-78
2023/01/10 03:58:16;;;;;;;;;;;;;;;17.65;65.77;100119.56;7402452;19;1423;-78
2023/01/10 04:00:44;;;;;;;;;;;;;;;17.32;66.79;100113.66;7401645;19;1843;-78
2023/01/10 04:03:12;;;;;;;;;;;;;;;17.22;67.02;100131.50;7401586;19;1465;-78
2023/01/10 04:05:41;;;;;;;;;;;;;;;18.09;64.93;100114.56;7403070;19;1728;-78
2023/01/10 04:08:11;;;;;;;;;;;;;;;19.29;61.21;100119.03;7402721;19;1803;-78
2023/01/10 04:10:40;;;;;;;;;;;;;;;19.39;61.11;100122.47;7402116;19;1756;-78
2023/01/10 04:13:08;;;;;;;;;;;;;;;19.30;61.65;100127.91;7403552;19;1586;-78
2023/01/10 04:15:36;;;;;;;;;;;;;;;19.10;62.14;100127.19;7401587;19;1473;-78
2023/01/10 04:18:04;;;;;;;;;;;;;;;19.17;62.19;100109.53;7401898;19;1489;-78
2023/01/10 04:20:33;;;;;;;;;;;;;;;19.25;61.58;100113.13;7400324;19;1814;-78
2023/01/10 04:23:01;;;;;;;;;;;;;;;19.41;61.28;100125.81;7401235;19;1752;-78
2023/01/10 04:25:32;;;;;;;;;;;;;;;19.20;61.97;100111.88;7403030;19;1594;-78
2023/01/10 04:28:00;;;;;;;;;;;;;;;19.52;60.48;100122.09;7400606;19;1395;-78
2023/01/10 04:30:29;;;;;;;;;;;;;;;19.64;60.38;100091.34;7403754;19;1076;-78
2023/01/10 04:32:57;;;;;;;;;;;;;;;19.46;60.67;100090.53;7401976;19;1830;-78
2023/01/10 04:35:25;;;;;;;;;;;;;;;19.46;60.82;100095.88;7400780;19;1597;-78
2023/01/10 04:37:53;;;;;;;;;;;;;;;19.28;61.40;100102.09;7402019;19;1719;-78
2023/01/10 04:40:22;;;;;;;;;;;;;;;19.22;61.60;100101.88;7401480;19;1471;-78
2023/01/10 04:42:53;;;;;;;;;;;;;;;19.41;60.81;100122.31;7401330;19;1836;-78
2023/01/10 04:45:21;;;;;;;;;;;;;;;19.47;61.07;100125.22;7409639;19;1682;-78
2023/01/10 04:47:54;;;;;;;;;;;;;;;19.57;60.66;100098.31;7408916;19;1799;-78
2023/01/10 04:50:23;;;;;;;;;;;;;;;19.46;60.82;100123.53;7405292;19;1610;-78
2023/01/10 04:52:51;;;;;;;;;;;;;;;19.45;61.13;100116.47;7405391;19;1590;-78
2023/01/10 04:55:20;;;;;;;;;;;;;;;19.45;60.90;100124.53;7407644;19;1594;-78
2023/01/10 04:57:48;;;;;;;;;;;;;;;19.41;60.94;100116.94;7408152;19;1015;-78
2023/01/10 05:00:19;;;;;;;;;;;;;;;19.48;60.64;100134.97;7406107;19;1720;-78
2023/01/10 05:02:47;;;;;;;;;;;;;;;19.42;61.06;100119.47;7406284;19;1849;-78
2023/01/10 05:05:16;;;;;;;;;;;;;;;19.47;61.00;100105.59;7407445;19;1815;-78
2023/01/10 05:07:47;;;;;;;;;;;;;;;19.44;60.91;100109.44;7409029;19;1665;-78
2023/01/10 05:10:15;;;;;;;;;;;;;;;19.41;60.72;100114.28;7405092;19;1495;-78
2023/01/10 05:12:43;;;;;;;;;;;;;;;19.42;60.95;100100.72;7409317;19;1030;-78
2023/01/10 05:15:12;;;;;;;;;;;;;;;19.42;60.83;100107.94;7408286;19;1728;-78
2023/01/10 05:17:43;;;;;;;;;;;;;;;19.40;60.88;100108.06;7407055;19;1724;-77
2023/01/10 05:20:12;;;;;;;;;;;;;;;19.38;61.26;100101.19;7405812;19;1591;-78
2023/01/10 05:22:40;;;;;;;;;;;;;;;19.41;60.68;100101.69;7404884;19;1849;-78
2023/01/10 05:25:09;;;;;;;;;;;;;;;19.57;60.35;100118.94;7407256;19;1411;-78
2023/01/10 05:27:37;;;;;;;;;;;;;;;19.53;60.76;100114.88;7408703;19;1012;-78
2023/01/10 05:30:06;;;;;;;;;;;;;;;19.43;60.79;100093.50;7407877;19;1727;-78
2023/01/10 05:32:34;;;;;;;;;;;;;;;19.49;60.49;100095.56;7407246;19;1739;-78
2023/01/10 05:35:05;;;;;;;;;;;;;;;19.45;60.68;100081.63;7406964;19;1654;-78
2023/01/10 05:37:34;;;;;;;;;;;;;;;19.42;60.58;100071.22;7406272;19;1582;-78
2023/01/10 05:40:02;;;;;;;;;;;;;;;19.71;60.13;100080.84;7404097;19;1395;-78
2023/01/10 05:42:30;;;;;;;;;;;;;;;19.94;59.36;100070.44;7405078;19;1842;-78
2023/01/10 05:44:59;;;;;;;;;;;;;;;20.03;59.02;100074.88;7406472;19;1530;-78
2023/01/10 05:47:27;;;;;;;;;;;;;;;19.51;59.91;100052.50;7404995;19;1577;-78
2023/01/10 05:49:55;;;;;;;;;;;;;;;18.63;62.40;100054.00;7405824;19;1385;-78
2023/01/10 05:52:26;;;;;;;;;;;;;;;18.08;63.82;100065.56;7405581;19;1650;-78
2023/01/10 05:54:54;;;;;;;;;;;;;;;17.67;65.11;100059.59;7403022;19;1586;-78
2023/01/10 05:57:23;;;;;;;;;;;;;;;17.48;65.55;100073.81;7407123;19;1062;-78
2023/01/10 05:59:51;;;;;;;;;;;;;;;17.38;66.04;100082.84;7403812;19;1534;-78
2023/01/10 06:02:19;;;;;;;;;;;;;;;17.74;65.03;100072.38;7403202;19;1827;-78
2023/01/10 06:04:48;;;;;;;;;;;;;;;18.65;62.74;100072.63;7327233;19;13175;-78
2023/01/10 06:07:16;;;;;;;;;;;;;;;19.10;61.58;100085.19;7395604;19;1508;-78
2023/01/10 06:09:49;;;;;;;;;;;;;;;19.30;61.32;100098.41;7392008;19;1593;-78
2023/01/10 06:12:18;;;;;;;;;;;;;;;19.45;61.29;100102.22;7394927;19;1122;-78
2023/01/10 06:14:46;;;;;;;;;;;;;;;19.47;60.83;100109.13;7394309;19;1277;-78
2023/01/10 06:17:14;;;;;;;;;;;;;;;19.58;60.82;100101.84;7393414;19;1494;-78
2023/01/10 06:19:42;;;;;;;;;;;;;;;19.47;61.08;100098.41;7403493;19;1396;-78
2023/01/10 06:22:11;;;;;;;;;;;;;;;19.35;60.99;100091.59;7403435;19;1861;-78
2023/01/10 06:24:41;;;;;;;;;;;;;;;19.14;61.76;100120.53;7404187;19;1487;-78
2023/01/10 06:27:12;;;;;;;;;;;;;;;18.48;63.18;100107.25;7405932;19;1278;-78
2023/01/10 06:29:40;;;;;;;;;;;;;;;18.08;64.38;100118.22;7333496;19;12736;-78
2023/01/10 06:32:08;;;;;;;;;;;;;;;17.83;65.69;100125.03;7393496;19;1383;-79
2023/01/10 06:34:36;;;;;;;;;;;;;;;17.64;66.29;100110.66;7397931;19;1333;-78
2023/01/10 06:37:05;;;;;;;;;;;;;;;17.50;65.93;100130.66;7400773;19;1325;-77
2023/01/10 06:39:33;;;;;;;;;;;;;;;17.42;66.98;100135.88;7401969;19;1349;-78
2023/01/10 06:42:01;;;;;;;;;;;;;;;17.40;67.10;100145.84;7401150;19;1844;-78
2023/01/10 06:44:32;;;;;;;;;;;;;;;17.24;67.27;100109.00;7399485;19;1338;-78
2023/01/10 06:47:00;;;;;;;;;;;;;;;17.20;67.12;100112.09;7400186;19;1258;-78
2023/01/10 06:49:28;;;;;;;;;;;;;;;17.15;67.04;100119.66;7399430;19;1286;-78
2023/01/10 06:51:57;;;;;;;;;;;;;;;17.12;67.45;100110.13;7399350;19;1226;-78
2023/01/10 06:54:25;;;;;;;;;;;;;;;16.99;67.36;100109.53;7400067;19;1384;-78
2023/01/10 06:56:53;;;;;;;;;;;;;;;17.03;67.54;100110.94;7403793;19;1183;-78
2023/01/10 06:59:21;;;;;;;;;;;;;;;18.28;63.90;100098.44;7401738;19;1282;-78
2023/01/10 07:01:52;;;;;;;;;;;;;;;18.61;62.48;100098.84;7401326;19;1853;-78
2023/01/10 07:04:20;;;;;;;;;;;;;;;18.87;62.20;100084.78;7400356;19;1465;-78
2023/01/10 07:06:49;;;;;;;;;;;;;;;19.01;61.94;100088.75;7401030;19;1357;-77
2023/01/10 07:09:17;;;;;;;;;;;;;;;19.16;61.46;100086.38;7402414;19;1242;-78
2023/01/10 07:11:45;;;;;;;;;;;;;;;19.18;61.16;100095.13;7403115;19;1263;-78
2023/01/10 07:14:13;;;;;;;;;;;;;;;19.22;61.10;100086.63;7393669;19;1466;-78
2023/01/10 07:16:42;;;;;;;;;;;;;;;19.38;61.09;100098.50;7399743;19;1480;-78
2023/01/10 07:19:14;;;;;;;;;;;;;;;19.29;60.98;100097.56;7402393;19;1372;-78
2023/01/10 07:21:43;;;;;;;;;;;;;;;19.18;61.36;100092.44;7400806;19;1861;-78
2023/01/10 07:24:11;;;;;;;;;;;;;;;19.12;61.41;100101.09;7401605;19;1404;-78
2023/01/10 07:26:39;;;;;;;;;;;;;;;18.97;61.81;100117.69;7401655;19;1278;-78
2023/01/10 07:29:07;;;;;;;;;;;;;;;19.03;61.35;100109.03;7401550;19;1505;-78
2023/01/10 07:31:36;;;;;;;;;;;;;;;19.00;61.79;100114.72;7401590;19;1488;-78
2023/01/10 07:34:04;;;;;;;;;;;;;;;19.05;61.41;100116.94;7400043;19;1210;-78
2023/01/10 07:36:36;;;;;;;;;;;;;;;19.04;61.46;100115.28;7399128;19;1207;-78
2023/01/10 07:39:04;;;;;;;;;;;;;;;19.02;61.68;100096.66;7401090;19;1166;-78
2023/01/10 07:41:32;;;;;;;;;;;;;;;19.04;61.58;100110.75;7401993;19;1024;-78
2023/01/10 07:44:01;;;;;;;;;;;;;;;19.15;61.28;100124.91;7398858;19;1839;-78
2023/01/10 07:46:29;;;;;;;;;;;;;;;19.15;61.10;100104.31;7400769;19;1378;-78
2023/01/10 07:48:57;;;;;;;;;;;;;;;19.20;61.11;100098.47;7400101;19;1159;-78
2023/01/10 07:54:24;;;;;;;;;;;;;;;19.23;61.43;100095.50;7375466;19;1343;-78
2023/01/10 07:56:52;;;;;;;;;;;;;;;19.16;61.67;100099.78;7396091;19;1489;-78
2023/01/10 07:59:20;;;;;;;;;;;;;;;19.23;61.39;100093.66;7398701;19;1581;-78
2023/01/10 08:01:49;;;;;;;;;;;;;;;19.18;61.58;100105.84;7399676;19;1843;-78
2023/01/10 08:04:17;;;;;;;;;;;;;;;19.19;61.64;100091.44;7399403;19;1158;-78
2023/01/10 08:06:45;;;;;;;;;;;;;;;19.23;61.11;100103.56;7400584;19;1487;-78
2023/01/10 08:09:13;;;;;;;;;;;;;;;19.26;61.07;100097.91;7401450;19;1245;-78
2023/01/10 08:11:44;;;;;;;;;;;;;;;19.26;61.06;100076.44;7399340;19;1224;-78
2023/01/10 08:14:13;;;;;;;;;;;;;;;19.27;61.21;100083.47;7397125;19;1282;-78
2023/01/10 08:16:41;;;;;;;;;;;;;;;19.23;61.54;100087.47;7397826;19;1373;-78
2023/01/10 08:19:11;;;;;;;;;;;;;;;19.25;61.65;100094.34;7402771;19;1313;-78
2023/01/10 08:21:39;;;;;;;;;;;;;;;19.19;61.35;100081.56;7404424;19;1203;-78
2023/01/10 08:24:08;;;;;;;;;;;;;;;19.21;61.78;100095.66;7401139;19;1853;-78
2023/01/10 08:26:36;;;;;;;;;;;;;;;19.42;61.89;100100.72;7403982;19;1399;-78
2023/01/10 08:29:07;;;;;;;;;;;;;;;19.31;62.11;100095.56;7405408;19;1601;-78
2023/01/10 08:31:35;;;;;;;;;;;;;;;19.45;62.46;100089.66;7403528;19;1479;-78
2023/01/10 08:34:03;;;;;;;;;;;;;;;19.31;63.21;100106.31;7408010;19;1456;-78
2023/01/10 08:36:32;;;;;;;;;;;;;;;18.85;66.16;100094.78;7404072;19;1657;-78
2023/01/10 08:39:00;;;;;;;;;;;;;;;18.38;68.37;100089.50;7407365;19;1427;-78
2023/01/10 08:41:28;;;;;;;;;;;;;;;18.04;70.13;100100.78;7408387;19;1598;-77
2023/01/10 08:43:56;;;;;;;;;;;;;;;17.83;70.05;100109.84;7403221;19;1859;-77
2023/01/10 08:46:27;;;;;;;;;;;;;;;17.78;69.57;100093.34;7406979;19;1439;-77
2023/01/10 08:48:55;;;;;;;;;;;;;;;17.70;69.05;100086.03;7406794;19;1521;-77
2023/01/10 08:51:24;;;;;;;;;;;;;;;17.59;69.55;100086.22;7403380;19;1584;-77
2023/01/10 08:53:52;;;;;;;;;;;;;;;17.54;69.68;100090.28;7407757;19;1497;-77
2023/01/10 08:56:20;;;;;;;;;;;;;;;17.47;69.00;100082.84;7407501;19;1667;-77
2023/01/10 08:58:48;;;;;;;;;;;;;;;17.48;68.80;100081.00;7403117;19;1628;-77
2023/01/10 09:01:17;;;;;;;;;;;;;;;17.45;68.57;100081.31;7402867;19;1473;-77
2023/01/10 09:03:48;;;;;;;;;;;;;;;17.39;69.02;100093.41;7405461;19;1853;-78
2023/01/10 09:06:16;;;;;;;;;;;;;;;17.43;69.18;100084.13;7408323;19;1514;-77
2023/01/10 09:08:44;;;;;;;;;;;;;;;17.35;69.34;100073.28;7400829;19;1653;-77
2023/01/10 09:11:13;;;;;;;;;;;;;;;17.30;69.42;100075.53;7407634;19;1553;-77
2023/01/10 09:13:41;;;;;;;;;;;;;;;17.20;69.32;100082.72;7406223;19;1625;-77
2023/01/10 09:16:10;;;;;;;;;;;;;;;17.16;69.52;100067.94;7407502;19;1510;-77
2023/01/10 09:18:38;;;;;;;;;;;;;;;17.12;69.65;100061.19;7406873;19;1674;-77
2023/01/10 09:21:09;;;;;;;;;;;;;;;17.13;69.20;100069.06;7406084;19;1677;-77
2023/01/10 09:23:38;;;;;;;;;;;;;;;17.17;69.46;100054.44;7406046;19;1853;-77
2023/01/10 09:26:07;;;;;;;;;;;;;;;17.05;69.83;100053.75;7407120;19;1514;-77
2023/01/10 09:28:35;;;;;;;;;;;;;;;17.76;67.66;100044.50;7408695;19;1528;-77
2023/01/10 09:31:04;;;;;;;;;;;;;;;18.48;65.13;100026.91;7407785;19;1553;-77
2023/01/10 09:33:32;;;;;;;;;;;;;;;19.12;63.35;100016.19;7407838;19;1425;-77
2023/01/10 09:36:00;;;;;;;;;;;;;;;19.61;61.49;100027.25;7406963;19;1721;-77
2023/01/10 09:38:31;;;;;;;;;;;;;;;19.85;61.15;100013.19;7405921;19;1408;-77
2023/01/10 09:41:14;;;;;;;;;;;;;;;19.93;60.66;100003.50;7407074;19;1412;-77
2023/01/10 09:43:49;;;;;;;;;;;;;;;19.98;60.40;100011.94;7404738;19;1865;-77
2023/01/10 09:46:20;;;;;;;;;;;;;;;20.00;60.55;100015.28;7405060;19;1339;-77
2023/01/10 09:48:52;;;;;;;;;;;;;;;19.81;60.97;100009.13;7405873;19;1289;-77
2023/01/10 09:51:24;;;;;;;;;;;;;;;19.74;61.23;99988.50;7407068;19;1497;-78
2023/01/10 09:53:58;;;;;;;;;;;;;;;19.59;61.53;100006.97;7407860;19;1137;-78
2023/01/10 09:56:27;;;;;;;;;;;;;;;19.21;63.03;100014.41;7408180;19;1195;-78
2023/01/10 09:58:56;;;;;;;;;;;;;;;18.53;64.40;99999.69;7403470;19;1371;-77
2023/01/10 10:01:27;;;;;;;;;;;;;;;18.10;65.75;100014.56;7405226;19;1473;-78
2023/01/10 10:04:00;;;;;;;;;;;;;;;17.80;67.00;100007.63;7404425;19;1867;-77
2023/01/10 10:06:29;;;;;;;;;;;;;;;17.65;67.09;99999.25;7404160;19;1393;-77
2023/01/10 10:08:59;;;;;;;;;;;;;;;17.60;67.23;99990.78;7402079;19;1475;-78
2023/01/10 10:11:43;;;;;;;;;;;;;;;17.47;67.66;99991.97;7406924;19;931;-77
2023/01/10 10:14:21;;;;;;;;;;;;;;;17.44;67.91;99992.22;7402878;19;1649;-77
2023/01/10 10:16:59;;;;;;;;;;;;;;;17.31;67.71;99986.38;7404290;19;1448;-77
2023/01/10 10:19:33;;;;;;;;;;;;;;;17.29;68.08;99988.34;7403795;19;1587;-77
2023/01/10 10:22:07;;;;;;;;;;;;;;;17.22;68.63;99985.38;7402258;19;1474;-77
2023/01/10 10:24:44;;;;;;;;;;;;;;;18.38;65.12;99982.44;7402506;19;1862;-77
2023/01/10 10:27:17;;;;;;;;;;;;;;;18.95;63.43;99955.41;7402882;19;1364;-77
2023/01/10 10:30:03;;;;;;;;;;;;;;;19.57;62.09;99955.34;7403272;19;1547;-77
2023/01/10 10:32:44;;;;;;;;;;;;;;;19.90;60.90;99948.34;7401848;19;1538;-77
2023/01/10 10:35:15;;;;;;;;;;;;;;;20.03;60.54;99939.81;7405357;19;1575;-77
2023/01/10 10:37:46;;;;;;;;;;;;;;;19.91;60.68;99925.00;7404107;19;1662;-77
2023/01/10 10:40:21;;;;;;;;;;;;;;;19.91;61.02;99931.22;7403739;19;1635;-77
2023/01/10 10:42:50;;;;;;;;;;;;;;;19.90;60.67;99921.50;7405126;19;1865;-77
2023/01/10 10:45:20;;;;;;;;;;;;;;;19.94;60.73;99922.84;7402184;19;1533;-77
2023/01/10 10:47:52;;;;;;;;;;;;;;;19.94;60.86;99908.59;7404585;19;1490;-77
2023/01/10 10:50:25;;;;;;;;;;;;;;;19.83;61.16;99890.94;7404492;19;1599;-77
2023/01/10 10:52:53;;;;;;;;;;;;;;;19.16;63.22;99917.53;7402722;19;1347;-77
2023/01/10 10:55:33;;;;;;;;;;;;;;;18.54;64.70;99904.97;7403128;19;1388;-77
2023/01/10 10:58:02;;;;;;;;;;;;;;;18.07;66.10;99915.88;7403034;19;1178;-77
2023/01/10 11:00:31;;;;;;;;;;;;;;;17.92;66.92;99917.38;7404420;19;1341;-77
2023/01/10 11:03:01;;;;;;;;;;;;;;;17.83;67.24;99913.72;7402124;19;1848;-77
2023/01/10 11:05:33;;;;;;;;;;;;;;;17.77;67.06;99901.78;7403332;19;1807;-77
2023/01/10 11:08:04;;;;;;;;;;;;;;;17.68;67.50;99903.50;7403503;19;1737;-77
2023/01/10 11:10:39;;;;;;;;;;;;;;;17.65;68.29;99913.69;7403025;19;1415;-77
2023/01/10 11:13:13;;;;;;;;;;;;;;;17.77;68.97;99893.78;7404247;19;1337;-77
2023/01/10 11:15:43;;;;;;;;;;;;;;;17.91;68.56;99908.50;7403939;19;1675;-77
2023/01/10 11:18:13;;;;;;;;;;;;;;;17.84;68.58;99912.75;7404640;19;1012;-77
2023/01/10 11:20:49;;;;;;;;;;;;;;;17.69;68.68;99888.31;7401483;19;1632;-77
2023/01/10 11:23:30;;;;;;;;;;;;;;;17.62;68.51;99887.22;7398506;19;1842;-77
2023/01/10 11:26:02;;;;;;;;;;;;;;;17.59;68.92;99868.81;7401817;19;1202;-77
2023/01/10 11:28:33;;;;;;;;;;;;;;;17.58;68.82;99865.28;7404145;19;1215;-77
2023/01/10 11:31:01;;;;;;;;;;;;;;;17.61;69.13;99872.19;7403285;19;1729;-77
2023/01/10 11:33:34;;;;;;;;;;;;;;;17.61;69.23;99872.19;7402005;19;1488;-77
2023/01/10 11:36:03;;;;;;;;;;;;;;;17.62;69.08;99872.03;7403685;19;1486;-77
2023/01/10 11:38:33;;;;;;;;;;;;;;;17.68;68.62;99881.28;7401784;19;1175;-77
2023/01/10 11:41:06;;;;;;;;;;;;;;;17.63;68.89;99856.84;7401828;19;1678;-77
2023/01/10 11:43:35;;;;;;;;;;;;;;;17.57;68.85;99881.50;7400906;19;1863;-78
2023/01/10 11:46:04;;;;;;;;;;;;;;;17.46;69.25;99859.28;7401260;19;1550;-77
2023/01/10 11:48:43;;;;;;;;;;;;;;;17.41;69.26;99869.59;7404331;19;973;-77
2023/01/10 11:51:19;;;;;;;;;;;;;;;17.54;69.22;99860.41;7403010;19;1258;-77
2023/01/10 11:53:50;;;;;;;;;;;;;;;17.62;68.86;99850.63;7402764;19;1155;-77
2023/01/10 11:56:26;;;;;;;;;;;;;;;17.57;68.89;99846.75;7400667;19;1634;-77
2023/01/10 11:58:54;;;;;;;;;;;;;;;17.44;69.62;99853.25;7398910;19;1693;-77
2023/01/10 12:01:30;;;;;;;;;;;;;;;17.37;69.76;99849.50;7401902;19;1473;-77
2023/01/10 12:03:59;;;;;;;;;;;;;;;17.45;69.09;99844.25;7401748;19;1863;-77
2023/01/10 12:06:29;;;;;;;;;;;;;;;17.46;69.27;99851.28;7401720;19;1398;-77
2023/01/10 12:08:57;;;;;;;;;;;;;;;17.42;69.52;99841.88;7401607;19;1716;-77
2023/01/10 12:11:30;;;;;;;;;;;;;;;17.36;69.69;99834.44;7401182;19;1474;-77
2023/01/10 12:13:59;;;;;;;;;;;;;;;17.52;69.41;99830.28;7399513;19;1832;-77
2023/01/10 12:16:29;;;;;;;;;;;;;;;17.63;69.04;99848.81;7398837;19;1399;-76
2023/01/10 12:18:59;;;;;;;;;;;;;;;17.60;68.84;99838.41;7399503;19;1321;-77
2023/01/10 12:21:31;;;;;;;;;;;;;;;17.50;68.87;99830.44;7400380;19;1438;-77
2023/01/10 12:24:02;;;;;;;;;;;;;;;17.47;69.12;99830.75;7397045;19;1893;-77
2023/01/10 12:26:34;;;;;;;;;;;;;;;17.33;69.30;99829.41;7401204;19;1356;-77
2023/01/10 12:29:07;;;;;;;;;;;;;;;17.29;69.56;99822.69;7399000;19;1847;-76
2023/01/10 12:31:36;;;;;;;;;;;;;;;17.52;69.11;99822.28;7401153;19;1452;-77
2023/01/10 12:34:08;;;;;;;;;;;;;;;17.62;68.92;99828.41;7399481;19;1592;-77
2023/01/10 12:36:41;;;;;;;;;;;;;;;17.50;69.08;99825.94;7400782;19;1423;-77
2023/01/10 12:39:16;;;;;;;;;;;;;;;17.39;69.06;99823.47;7401631;19;1408;-77
2023/01/10 12:44:47;;;;;;;;;;;;;;;17.32;69.52;99811.69;7399934;19;1848;-76
2023/01/10 12:47:23;;;;;;;;;;;;;;;17.39;69.27;99814.59;7400488;19;1399;-77
2023/01/10 12:49:55;;;;;;;;;;;;;;;17.34;69.42;99820.38;7399823;19;1739;-77
2023/01/10 12:52:30;;;;;;;;;;;;;;;17.35;69.27;99818.53;7398755;19;1525;-77
2023/01/10 12:54:59;;;;;;;;;;;;;;;17.36;69.23;99822.91;7398699;19;1404;-77
2023/01/10 12:57:33;;;;;;;;;;;;;;;17.35;69.49;99798.03;7398392;19;1334;-77
2023/01/10 13:00:03;;;;;;;;;;;;;;;17.46;69.27;99797.81;7398209;19;1532;-76
2023/01/10 13:02:39;;;;;;;;;;;;;;;17.54;69.17;99798.91;7398871;19;1541;-76
2023/01/10 13:05:15;;;;;;;;;;;;;;;17.40;69.15;99808.28;7401104;19;1865;-77
2023/01/10 13:07:44;;;;;;;;;;;;;;;17.14;70.09;99805.44;7407020;19;1584;-77
2023/01/10 13:10:16;;;;;;;;;;;;;;;16.99;70.60;99821.06;7406376;19;1482;-77
2023/01/10 13:12:50;;;;;;;;;;;;;;;16.82;70.51;99809.34;7407457;19;1093;-77
2023/01/10 13:15:21;;;;;;;;;;;;;;;16.74;71.08;99817.19;7406365;19;1506;-77
2023/01/10 13:17:53;;;;;;;;;;;;;;;17.35;69.10;99818.53;7407506;19;1547;-77
2023/01/10 13:20:31;;;;;;;;;;;;;;;18.26;65.97;99805.19;7405580;19;1725;-77